TimeCDT,TemperatureF,Dew PointF,Humidity,Sea Level PressureIn,VisibilityMPH,Wind Direction,Wind SpeedMPH,Gust SpeedMPH,PrecipitationIn,Events,Conditions,WindDirDegrees,DateUTC
12:15 AM,74.1,68.2,82,30.11,10.0,NE,4.6,-,N/A,,Clear,40,2013-07-27 05:15:00
12:16 AM,73.4,68.0,83,30.11,10.0,NE,4.6,-,N/A,,Clear,40,2013-07-27 05:16:00
12:35 AM,73.8,68.7,84,30.12,10.0,North,4.6,-,N/A,,Clear,10,2013-07-27 05:35:00
12:55 AM,73.8,68.5,84,30.12,10.0,NNE,3.5,-,N/A,,Clear,20,2013-07-27 05:55:00
1:15 AM,74.3,68.2,81,30.13,10.0,Calm,Calm,-,N/A,,Clear,0,2013-07-27 06:15:00
1:35 AM,73.9,67.8,81,30.12,10.0,ENE,5.8,-,N/A,,Clear,60,2013-07-27 06:35:00
1:55 AM,73.4,67.6,82,30.13,10.0,NE,5.8,-,N/A,,Clear,50,2013-07-27 06:55:00
2:15 AM,73.0,67.6,83,30.12,10.0,NE,4.6,-,N/A,,Clear,40,2013-07-27 07:15:00
2:16 AM,73.4,68.0,83,30.12,10.0,NE,4.6,-,N/A,,Clear,40,2013-07-27 07:16:00
2:34 AM,73.4,68.0,83,30.12,10.0,NE,5.8,-,N/A,,Clear,50,2013-07-27 07:34:00
2:35 AM,72.7,67.6,84,30.12,10.0,NE,5.8,-,N/A,,Clear,50,2013-07-27 07:35:00
2:55 AM,72.5,68.0,86,30.11,10.0,NE,6.9,-,N/A,,Clear,40,2013-07-27 07:55:00
2:56 AM,73.4,68.0,83,30.11,10.0,NE,6.9,-,N/A,,Clear,40,2013-07-27 07:56:00
3:15 AM,72.5,67.5,84,30.11,10.0,NE,6.9,-,N/A,,Clear,40,2013-07-27 08:15:00
3:35 AM,72.5,67.8,85,30.11,10.0,NE,5.8,-,N/A,,Clear,50,2013-07-27 08:35:00
3:55 AM,72.0,67.5,86,30.11,10.0,NE,4.6,-,N/A,,Clear,50,2013-07-27 08:55:00
4:15 AM,71.8,67.6,87,30.12,10.0,NE,4.6,-,N/A,,Clear,40,2013-07-27 09:15:00
4:35 AM,72.3,67.1,84,30.12,10.0,ENE,6.9,-,N/A,,Clear,70,2013-07-27 09:35:00
4:36 AM,71.6,66.2,83,30.12,10.0,ENE,6.9,-,N/A,,Clear,70,2013-07-27 09:36:00
4:55 AM,72.1,66.7,83,30.13,10.0,ENE,4.6,-,N/A,,Clear,70,2013-07-27 09:55:00
5:15 AM,71.6,66.7,85,30.13,10.0,Calm,Calm,-,N/A,,Clear,0,2013-07-27 10:15:00
5:35 AM,71.6,67.1,86,30.13,10.0,Calm,Calm,-,N/A,,Clear,0,2013-07-27 10:35:00
5:55 AM,72.0,67.1,85,30.14,10.0,Calm,Calm,-,N/A,,Clear,0,2013-07-27 10:55:00
6:15 AM,71.6,67.1,86,30.14,10.0,Calm,Calm,-,N/A,,Clear,0,2013-07-27 11:15:00
6:34 AM,71.6,66.2,83,30.15,10.0,Calm,Calm,-,N/A,,Clear,0,2013-07-27 11:34:00
6:35 AM,71.6,67.1,86,30.15,10.0,Calm,Calm,-,N/A,,Clear,0,2013-07-27 11:35:00
6:55 AM,71.2,67.1,87,30.16,10.0,Calm,Calm,-,N/A,,Clear,0,2013-07-27 11:55:00
7:14 AM,71.6,66.2,83,30.16,10.0,Calm,Calm,-,N/A,,Mostly Cloudy,0,2013-07-27 12:14:00
7:15 AM,71.6,66.6,84,30.16,10.0,Calm,Calm,-,N/A,,Mostly Cloudy,0,2013-07-27 12:15:00
7:34 AM,71.6,66.2,83,30.16,10.0,Calm,Calm,-,N/A,,Overcast,0,2013-07-27 12:34:00
7:35 AM,72.3,66.9,83,30.16,10.0,Calm,Calm,-,N/A,,Overcast,0,2013-07-27 12:35:00
7:54 AM,73.4,66.2,78,30.16,10.0,Calm,Calm,-,N/A,,Overcast,0,2013-07-27 12:54:00
7:55 AM,73.4,66.6,79,30.16,10.0,Calm,Calm,-,N/A,,Overcast,0,2013-07-27 12:55:00
8:14 AM,73.4,66.2,78,30.16,10.0,Calm,Calm,-,N/A,,Mostly Cloudy,0,2013-07-27 13:14:00
8:15 AM,74.3,66.4,76,30.16,10.0,Calm,Calm,-,N/A,,Mostly Cloudy,0,2013-07-27 13:15:00
8:35 AM,75.4,66.6,74,30.16,10.0,ESE,3.5,-,N/A,,Scattered Clouds,110,2013-07-27 13:35:00
8:55 AM,76.1,66.0,71,30.17,10.0,East,4.6,-,N/A,,Scattered Clouds,100,2013-07-27 13:55:00
9:15 AM,76.5,65.3,68,30.17,10.0,East,5.8,-,N/A,,Scattered Clouds,80,2013-07-27 14:15:00
9:35 AM,76.5,65.5,69,30.18,10.0,East,3.5,-,N/A,,Clear,80,2013-07-27 14:35:00
9:55 AM,77.2,65.7,67,30.17,10.0,East,4.6,-,N/A,,Clear,80,2013-07-27 14:55:00
9:56 AM,78.8,64.4,61,30.17,10.0,East,3.5,-,N/A,,Clear,80,2013-07-27 14:56:00
10:15 AM,78.4,65.5,64,30.16,10.0,East,4.6,-,N/A,,Clear,100,2013-07-27 15:15:00
10:35 AM,78.1,64.6,63,30.16,10.0,SE,5.8,-,N/A,,Clear,140,2013-07-27 15:35:00
10:55 AM,78.1,64.6,63,30.16,10.0,Calm,Calm,-,N/A,,Clear,0,2013-07-27 15:55:00
11:15 AM,79.2,64.6,61,30.16,10.0,ESE,8.1,-,N/A,,Clear,110,2013-07-27 16:15:00
11:35 AM,79.2,63.9,59,30.16,10.0,SE,6.9,-,N/A,,Clear,130,2013-07-27 16:35:00
11:55 AM,81.0,64.0,56,30.15,10.0,NE,8.1,-,N/A,,Clear,50,2013-07-27 16:55:00
12:15 PM,81.7,63.1,53,30.15,10.0,East,9.2,-,N/A,,Clear,90,2013-07-27 17:15:00
12:35 PM,82.4,62.2,50,30.14,10.0,ENE,8.1,-,N/A,,Clear,70,2013-07-27 17:35:00
12:36 PM,82.4,62.6,51,30.14,10.0,NE,5.8,-,N/A,,Clear,50,2013-07-27 17:36:00
12:55 PM,83.7,62.8,49,30.13,10.0,East,8.1,-,N/A,,Clear,100,2013-07-27 17:55:00
1:15 PM,83.3,61.7,48,30.12,10.0,East,4.6,-,N/A,,Clear,100,2013-07-27 18:15:00
1:16 PM,82.4,62.6,51,30.12,10.0,ESE,8.1,-,N/A,,Clear,110,2013-07-27 18:16:00
1:35 PM,84.2,62.1,47,30.12,10.0,SE,8.1,-,N/A,,Scattered Clouds,130,2013-07-27 18:35:00
1:55 PM,85.3,61.7,45,30.11,10.0,Calm,Calm,-,N/A,,Clear,0,2013-07-27 18:55:00
2:15 PM,85.1,61.9,46,30.10,10.0,East,8.1,-,N/A,,Clear,100,2013-07-27 19:15:00
2:35 PM,86.7,61.9,43,30.09,10.0,NE,3.5,-,N/A,,Clear,40,2013-07-27 19:35:00
2:55 PM,86.9,62.1,43,30.07,10.0,ESE,8.1,-,N/A,,Clear,110,2013-07-27 19:55:00
3:15 PM,86.7,61.5,43,30.07,10.0,ESE,3.5,-,N/A,,Clear,110,2013-07-27 20:15:00
3:35 PM,87.4,60.4,40,30.05,10.0,South,3.5,-,N/A,,Clear,180,2013-07-27 20:35:00
3:55 PM,88.5,60.4,39,30.05,10.0,SSE,3.5,-,N/A,,Clear,160,2013-07-27 20:55:00
4:14 PM,89.6,59.0,36,30.04,10.0,Calm,Calm,-,N/A,,Scattered Clouds,0,2013-07-27 21:14:00
4:15 PM,88.7,58.8,36,30.04,10.0,Calm,Calm,-,N/A,,Scattered Clouds,0,2013-07-27 21:15:00
4:35 PM,89.8,58.8,35,30.03,10.0,ESE,6.9,-,N/A,,Clear,110,2013-07-27 21:35:00
4:55 PM,88.7,58.6,36,30.01,10.0,ENE,3.5,-,N/A,,Clear,70,2013-07-27 21:55:00
5:15 PM,89.6,59.0,36,30.00,10.0,East,6.9,-,N/A,,Clear,90,2013-07-27 22:15:00
5:16 PM,89.6,59.0,36,30.00,10.0,East,5.8,-,N/A,,Clear,90,2013-07-27 22:16:00
5:34 PM,89.6,57.2,33,29.99,10.0,ENE,6.9,16.1,N/A,,Clear,70,2013-07-27 22:34:00
5:35 PM,90.3,57.9,33,29.99,10.0,ENE,8.1,16.1,N/A,,Clear,70,2013-07-27 22:35:00
5:54 PM,89.6,57.2,33,29.98,10.0,East,6.9,-,N/A,,Clear,90,2013-07-27 22:54:00
5:55 PM,90.0,57.0,33,29.98,10.0,East,6.9,-,N/A,,Clear,80,2013-07-27 22:55:00
6:14 PM,89.6,55.4,31,29.98,10.0,SE,5.8,-,N/A,,Clear,130,2013-07-27 23:14:00
6:15 PM,89.6,55.4,31,29.98,10.0,SE,5.8,-,N/A,,Clear,130,2013-07-27 23:15:00
6:34 PM,89.6,55.4,31,29.98,10.0,Calm,Calm,-,N/A,,Clear,0,2013-07-27 23:34:00
6:35 PM,90.1,55.2,30,29.98,10.0,Calm,Calm,-,N/A,,Clear,0,2013-07-27 23:35:00
6:55 PM,88.5,54.5,31,29.98,10.0,ESE,6.9,-,N/A,,Clear,110,2013-07-27 23:55:00
6:56 PM,89.6,53.6,29,29.97,10.0,ESE,8.1,-,N/A,,Clear,120,2013-07-27 23:56:00
7:14 PM,87.8,53.6,31,29.97,10.0,SE,8.1,-,N/A,,Clear,140,2013-07-28 00:14:00
7:15 PM,88.0,53.2,30,29.97,10.0,SE,8.1,-,N/A,,Clear,130,2013-07-28 00:15:00
7:35 PM,87.6,54.0,32,29.96,10.0,SE,8.1,-,N/A,,Clear,130,2013-07-28 00:35:00
7:55 PM,87.8,52.9,30,29.96,10.0,SE,6.9,-,N/A,,Clear,140,2013-07-28 00:55:00
8:15 PM,86.5,53.1,32,29.97,10.0,SE,5.8,-,N/A,,Clear,140,2013-07-28 01:15:00
8:35 PM,84.4,53.6,35,29.98,10.0,SSE,4.6,-,N/A,,Clear,150,2013-07-28 01:35:00
8:55 PM,82.2,54.1,38,29.98,10.0,SSE,5.8,-,N/A,,Clear,150,2013-07-28 01:55:00
9:15 PM,80.6,55.4,42,29.98,10.0,SSE,5.8,-,N/A,,Clear,150,2013-07-28 02:15:00
9:35 PM,79.0,57.9,48,29.98,10.0,SE,4.6,-,N/A,,Clear,140,2013-07-28 02:35:00
9:55 PM,77.7,59.0,52,29.99,10.0,SE,5.8,-,N/A,,Clear,130,2013-07-28 02:55:00
9:56 PM,78.8,59.0,51,29.99,10.0,SE,5.8,-,N/A,,Clear,130,2013-07-28 02:56:00
10:15 PM,77.2,59.2,54,29.99,10.0,SE,6.9,-,N/A,,Clear,130,2013-07-28 03:15:00
10:35 PM,76.5,59.0,55,30.00,10.0,ESE,6.9,-,N/A,,Clear,120,2013-07-28 03:35:00
10:55 PM,76.3,59.0,55,30.00,10.0,ESE,5.8,-,N/A,,Clear,120,2013-07-28 03:55:00
10:56 PM,75.2,59.0,57,30.00,10.0,ESE,5.8,-,N/A,,Clear,120,2013-07-28 03:56:00
11:15 PM,77.4,57.0,49,30.01,10.0,ESE,6.9,-,N/A,,Clear,120,2013-07-28 04:15:00
11:35 PM,78.3,54.9,44,30.01,10.0,ESE,8.1,-,N/A,,Clear,120,2013-07-28 04:35:00
11:36 PM,78.8,53.6,42,30.01,10.0,ESE,8.1,-,N/A,,Clear,120,2013-07-28 04:36:00
11:55 PM,78.8,53.2,41,30.01,10.0,ESE,8.1,-,N/A,,Clear,120,2013-07-28 04:55:00